createdAt,value
2023-02-19T00:01:28.406Z,101161.63
2023-02-19T00:03:56.657Z,101160.66
2023-02-19T00:06:25.827Z,101157.91
2023-02-19T00:08:52.897Z,101155.66
2023-02-19T00:11:22.023Z,101165.00
2023-02-19T00:13:51.018Z,101165.59
2023-02-19T00:16:21.231Z,101155.97
2023-02-19T00:18:48.138Z,101148.22
2023-02-19T00:21:15.669Z,101140.88
2023-02-19T00:23:42.358Z,101148.31
2023-02-19T00:26:18.159Z,101141.97
2023-02-19T00:28:47.723Z,101139.56
2023-02-19T00:31:17.841Z,101148.06
2023-02-19T00:33:46.589Z,101123.72
2023-02-19T00:36:14.412Z,101114.84
2023-02-19T00:38:42.442Z,101142.78
2023-02-19T00:41:10.779Z,101139.94
2023-02-19T00:43:37.549Z,101144.94
2023-02-19T00:46:04.353Z,101137.66
2023-02-19T00:48:30.992Z,101134.53
2023-02-19T00:50:58.851Z,101134.53
2023-02-19T00:53:25.521Z,101122.41
2023-02-19T00:55:52.063Z,101134.53
2023-02-19T00:58:18.688Z,101128.91
2023-02-19T01:00:45.227Z,101105.16
2023-02-19T01:03:11.766Z,101128.44
2023-02-19T01:05:38.357Z,101123.53
2023-02-19T01:08:07.047Z,101120.25
2023-02-19T01:10:33.562Z,101118.19
2023-02-19T01:13:00.183Z,101119.41
2023-02-19T01:15:26.825Z,101120.03
2023-02-19T01:17:53.479Z,101107.06
2023-02-19T01:20:20.328Z,101107.06
2023-02-19T01:22:46.895Z,101105.41
2023-02-19T01:25:14.818Z,101103.00
2023-02-19T01:27:41.428Z,101109.72
2023-02-19T01:30:09.396Z,101109.13
2023-02-19T01:32:36.052Z,101100.72
2023-02-19T01:35:02.836Z,101114.88
2023-02-19T01:37:29.484Z,101112.97
2023-02-19T01:39:56.022Z,101109.59
2023-02-19T01:42:24.166Z,101100.97
2023-02-19T01:45:20.468Z,101100.63
2023-02-19T01:47:49.280Z,101086.59
2023-02-19T01:50:16.560Z,101095.47
2023-02-19T01:52:43.175Z,101107.31
2023-02-19T01:55:12.697Z,101097.25
2023-02-19T01:57:45.229Z,101089.22
2023-02-19T02:00:14.955Z,101090.06
2023-02-19T02:02:44.993Z,101093.28
2023-02-19T02:05:23.350Z,101093.41
2023-02-19T02:07:50.367Z,101083.00
2023-02-19T02:10:16.942Z,101093.28
2023-02-19T02:12:44.938Z,101098.81
2023-02-19T02:15:12.231Z,101092.56
2023-02-19T02:17:51.906Z,101103.75
2023-02-19T02:20:32.825Z,101089.81
2023-02-19T02:23:07.061Z,101089.47
2023-02-19T02:25:56.180Z,101093.94
2023-02-19T02:28:40.553Z,101092.84
2023-02-19T02:31:13.953Z,101083.97
2023-02-19T02:33:46.555Z,101092.84
2023-02-19T02:36:18.289Z,101089.47
2023-02-19T02:38:46.215Z,101085.25
2023-02-19T02:41:14.856Z,101082.63
2023-02-19T02:43:41.945Z,101082.75
2023-02-19T02:46:12.239Z,101070.41
2023-02-19T02:48:43.320Z,101083.31
2023-02-19T02:51:15.828Z,101063.06
2023-02-19T02:53:54.492Z,101072.56
2023-02-19T02:56:22.237Z,101035.00
2023-02-19T02:58:50.189Z,101082.00
2023-02-19T03:01:23.741Z,101084.34
2023-02-19T03:03:57.253Z,101091.03
2023-02-19T03:06:28.281Z,101080.88
2023-02-19T03:08:59.194Z,101080.59
2023-02-19T03:11:25.937Z,101072.84
2023-02-19T03:13:58.181Z,101077.84
2023-02-19T03:16:31.039Z,101082.53
2023-02-19T03:18:59.436Z,101084.81
2023-02-19T03:21:28.301Z,101077.28
2023-02-19T03:23:57.252Z,101083.25
2023-02-19T03:26:26.055Z,101082.63
2023-02-19T03:28:53.814Z,101091.25
2023-02-19T03:31:24.633Z,101097.84
2023-02-19T03:34:00.117Z,101097.25
2023-02-19T03:36:33.489Z,101099.78
2023-02-19T03:39:03.459Z,101090.78
2023-02-19T03:41:35.204Z,101093.19
2023-02-19T03:44:10.175Z,101107.31
2023-02-19T03:46:45.774Z,101103.75
2023-02-19T03:49:18.743Z,101109.97
2023-02-19T03:51:50.957Z,101110.69
2023-02-19T03:54:23.217Z,101114.03
2023-02-19T03:56:54.848Z,101109.13
2023-02-19T03:59:30.280Z,101126.16
2023-02-19T04:02:02.830Z,101124.22
2023-02-19T04:04:33.965Z,101124.94
2023-02-19T04:07:00.739Z,101129.88
2023-02-19T04:09:36.324Z,101125.44
2023-02-19T04:12:09.120Z,101135.75
2023-02-19T04:14:40.870Z,101133.97
2023-02-19T04:17:14.015Z,101138.25
2023-02-19T04:19:42.827Z,101103.84
2023-02-19T04:22:11.035Z,101142.94
2023-02-19T04:24:40.898Z,101148.69
2023-02-19T04:27:09.087Z,101128.66
2023-02-19T04:29:37.126Z,101154.94
2023-02-19T04:32:05.212Z,101163.78
2023-02-19T04:34:31.754Z,101161.63
2023-02-19T04:36:59.637Z,101169.06
2023-02-19T04:39:26.199Z,101176.88
2023-02-19T04:41:52.803Z,101161.91
2023-02-19T04:44:19.425Z,101169.47
2023-02-19T04:46:45.924Z,101172.69
2023-02-19T04:49:12.484Z,101174.59
2023-02-19T04:51:39.252Z,101184.22
2023-02-19T04:54:07.562Z,101182.16
2023-02-19T04:56:34.166Z,101187.31
2023-02-19T04:59:00.700Z,101194.28
2023-02-19T05:01:27.235Z,101181.56
2023-02-19T05:03:53.779Z,101185.63
2023-02-19T05:06:20.570Z,101196.66
2023-02-19T05:08:47.097Z,101194.13
2023-02-19T05:11:15.051Z,101193.81
2023-02-19T05:13:41.620Z,101205.88
2023-02-19T05:16:13.369Z,101207.22
2023-02-19T05:18:40.200Z,101211.53
2023-02-19T05:21:06.695Z,101205.50
2023-02-19T05:23:33.357Z,101203.44
2023-02-19T05:26:03.873Z,101201.44
2023-02-19T05:28:31.825Z,101202.13
2023-02-19T05:30:58.395Z,101201.94
2023-02-19T05:33:25.939Z,101196.66
2023-02-19T05:35:54.237Z,101205.75
2023-02-19T05:38:21.853Z,101209.34
2023-02-19T05:40:48.495Z,101215.69
2023-02-19T05:43:15.514Z,101204.84
2023-02-19T05:45:43.872Z,101218.09
2023-02-19T05:48:11.204Z,101228.75
2023-02-19T05:50:39.723Z,101238.38
2023-02-19T05:53:12.748Z,101232.25
2023-02-19T05:55:39.337Z,101226.69
2023-02-19T05:58:05.937Z,101233.19
2023-02-19T06:00:33.443Z,101236.28
2023-02-19T06:03:01.452Z,101252.00
2023-02-19T06:05:28.409Z,101259.06
2023-02-19T06:07:54.973Z,101260.13
2023-02-19T06:10:22.445Z,101272.72
2023-02-19T06:12:52.609Z,101279.78
2023-02-19T06:15:19.205Z,101277.88
2023-02-19T06:17:45.704Z,101281.34
2023-02-19T06:20:13.752Z,101273.28
2023-02-19T06:22:40.284Z,101281.34
2023-02-19T06:25:07.329Z,101281.13
2023-02-19T06:27:36.237Z,101285.44
2023-02-19T06:30:03.067Z,101291.44
2023-02-19T06:32:29.668Z,101294.16
2023-02-19T06:34:56.465Z,101271.13
2023-02-19T06:37:24.360Z,101277.25
2023-02-19T06:39:51.031Z,101289.59
2023-02-19T06:42:17.669Z,101294.16
2023-02-19T06:44:44.261Z,101287.50
2023-02-19T06:47:10.801Z,101290.03
2023-02-19T06:49:38.906Z,101295.31
2023-02-19T06:52:05.501Z,101302.06
2023-02-19T06:54:33.400Z,101310.94
2023-02-19T06:57:01.301Z,101322.31
2023-02-19T06:59:28.090Z,101258.25
2023-02-19T07:01:54.602Z,101319.28
2023-02-19T07:04:21.267Z,101328.03
2023-02-19T07:06:53.695Z,101315.06
2023-02-19T07:09:22.183Z,101327.91
2023-02-19T07:11:50.058Z,101333.31
2023-02-19T07:14:17.263Z,101332.72
2023-02-19T07:16:44.436Z,101342.56
2023-02-19T07:19:11.134Z,101348.56
2023-02-19T07:21:38.005Z,101333.31
2023-02-19T07:24:05.222Z,101355.19
2023-02-19T07:26:32.259Z,101343.13
2023-02-19T07:29:00.435Z,101364.97
2023-02-19T07:31:27.403Z,101368.94
2023-02-19T07:33:54.816Z,101355.22
2023-02-19T07:36:23.010Z,101375.16
2023-02-19T07:38:54.032Z,101375.66
2023-02-19T07:41:23.967Z,101363.31
2023-02-19T07:43:50.546Z,101382.34
2023-02-19T07:46:18.442Z,101394.88
2023-02-19T07:48:45.449Z,101403.41
2023-02-19T07:51:14.404Z,101404.69
2023-02-19T07:53:40.948Z,101363.75
2023-02-19T07:56:08.538Z,101418.09
2023-02-19T07:58:35.534Z,101418.19
2023-02-19T08:01:10.885Z,101412.09
2023-02-19T08:03:39.328Z,101429.59
2023-02-19T08:06:06.690Z,101408.38
2023-02-19T08:08:33.952Z,101393.75
2023-02-19T08:11:01.517Z,101381.00
2023-02-19T08:13:29.939Z,101431.91
2023-02-19T08:16:18.233Z,101426.13
2023-02-19T08:18:49.805Z,101442.03
2023-02-19T08:21:16.372Z,101449.09
2023-02-19T08:23:43.180Z,101428.44
2023-02-19T08:26:09.696Z,101447.91
2023-02-19T08:28:36.744Z,101442.38
2023-02-19T08:31:12.174Z,101450.38
2023-02-19T08:33:39.929Z,101473.34
2023-02-19T08:36:10.887Z,101466.38
2023-02-19T08:38:37.648Z,101445.41
2023-02-19T08:41:05.924Z,101462.75
2023-02-19T08:43:33.022Z,101476.16
2023-02-19T08:46:00.123Z,101484.38
2023-02-19T08:48:27.085Z,101484.19
2023-02-19T08:50:55.193Z,101469.53
2023-02-19T08:53:23.801Z,101487.00
2023-02-19T08:55:50.782Z,101492.84
2023-02-19T08:58:17.456Z,101464.72
2023-02-19T09:00:44.102Z,101481.97
2023-02-19T09:03:10.847Z,101481.56
2023-02-19T09:05:37.747Z,101479.44
2023-02-19T09:08:04.465Z,101483.38
2023-02-19T09:10:32.508Z,101479.13
2023-02-19T09:12:59.249Z,101466.38
2023-02-19T09:15:26.178Z,101499.00
2023-02-19T09:17:53.178Z,101482.84
2023-02-19T09:20:20.153Z,101498.66
2023-02-19T09:22:47.119Z,101490.50
2023-02-19T09:25:13.917Z,101498.94
2023-02-19T09:27:41.877Z,101498.63
2023-02-19T09:30:09.010Z,101505.28
2023-02-19T09:32:35.694Z,101509.19
2023-02-19T09:35:02.216Z,101508.75
2023-02-19T09:37:28.804Z,101514.97
2023-02-19T09:39:55.630Z,101520.16
2023-02-19T09:42:24.470Z,101524.69
2023-02-19T09:44:57.462Z,101521.38
2023-02-19T09:47:26.117Z,101529.19
2023-02-19T09:49:55.764Z,101533.19
2023-02-19T09:52:31.454Z,101529.00
2023-02-19T09:55:01.314Z,101531.25
2023-02-19T09:57:30.959Z,101517.25
2023-02-19T10:00:04.320Z,101542.94
2023-02-19T10:02:31.602Z,101553.28
2023-02-19T10:04:58.715Z,101553.28
2023-02-19T10:07:29.967Z,101544.34
2023-02-19T10:10:00.159Z,101551.75
2023-02-19T10:12:30.080Z,101553.16
2023-02-19T10:15:05.130Z,101549.75
2023-02-19T10:17:32.470Z,101556.22
2023-02-19T10:19:59.051Z,101544.59
2023-02-19T10:22:25.875Z,101555.38
2023-02-19T10:24:55.982Z,101536.94
2023-02-19T10:27:25.162Z,101561.72
2023-02-19T10:29:54.429Z,101567.53
2023-02-19T10:32:24.567Z,101580.72
2023-02-19T10:35:09.993Z,101580.97
2023-02-19T10:37:43.074Z,101599.09
2023-02-19T10:40:16.109Z,101599.81
2023-02-19T10:42:46.111Z,101590.63
2023-02-19T10:45:19.815Z,101597.16
2023-02-19T10:47:48.072Z,101597.25
2023-02-19T10:50:23.585Z,101606.53
2023-02-19T10:52:53.577Z,101607.47
2023-02-19T10:55:27.576Z,101611.16
2023-02-19T10:57:54.209Z,101617.47
2023-02-19T11:00:23.724Z,101631.00
2023-02-19T11:03:19.091Z,101624.66
2023-02-19T11:06:00.810Z,101628.09
2023-02-19T11:08:28.152Z,101613.78
2023-02-19T11:10:54.928Z,101630.09
2023-02-19T11:13:28.464Z,101618.31
2023-02-19T11:15:56.243Z,101628.69
2023-02-19T11:18:27.017Z,101629.41
2023-02-19T11:20:56.517Z,101645.81
2023-02-19T11:23:27.642Z,101637.75
2023-02-19T11:25:57.319Z,101640.00
2023-02-19T11:28:30.768Z,101652.09
2023-02-19T11:31:14.582Z,101672.50
2023-02-19T11:33:52.277Z,101670.81
2023-02-19T11:36:31.307Z,101660.28
2023-02-19T11:39:02.600Z,101667.03
2023-02-19T11:42:03.800Z,101670.22
2023-02-19T11:44:46.489Z,101662.41
2023-02-19T11:47:51.164Z,101664.13
2023-02-19T11:50:26.915Z,101663.38
2023-02-19T11:53:07.137Z,101666.34
2023-02-19T11:55:53.796Z,101653.75
2023-02-19T11:58:55.294Z,101657.03
2023-02-19T12:01:26.945Z,101655.00
2023-02-19T12:04:02.609Z,101650.22
2023-02-19T12:06:44.794Z,101649.81
2023-02-19T12:09:28.665Z,101656.69
2023-02-19T12:12:38.186Z,101648.63
2023-02-19T12:15:35.299Z,101632.06
2023-02-19T12:18:24.347Z,101643.84
2023-02-19T12:21:04.299Z,101637.47
2023-02-19T12:24:11.539Z,101629.84
2023-02-19T12:26:47.519Z,101593.84
2023-02-19T12:29:32.451Z,101644.06
2023-02-19T12:32:18.140Z,101640.91
2023-02-19T12:35:02.459Z,101642.69
2023-02-19T12:37:40.937Z,101634.06
2023-02-19T12:40:25.587Z,101641.19
2023-02-19T12:43:04.951Z,101639.63
2023-02-19T12:45:37.752Z,101644.00
2023-02-19T12:48:14.083Z,101649.94
2023-02-19T12:50:41.957Z,101641.91
2023-02-19T12:53:24.679Z,101649.25
2023-02-19T12:55:53.748Z,101657.00
2023-02-19T12:58:29.175Z,101653.19
2023-02-19T13:00:57.104Z,101646.88
2023-02-19T13:03:30.347Z,101656.78
2023-02-19T13:06:02.915Z,101654.94
2023-02-19T13:08:36.513Z,101645.53
2023-02-19T13:11:09.555Z,101640.72
2023-02-19T13:13:40.773Z,101644.59
2023-02-19T13:16:11.426Z,101638.25
2023-02-19T13:18:43.924Z,101632.19
2023-02-19T13:21:12.404Z,101654.53
2023-02-19T13:23:42.979Z,101659.31
2023-02-19T13:26:31.125Z,101653.81
2023-02-19T13:29:09.925Z,101666.19
2023-02-19T13:31:53.630Z,101649.06
2023-02-19T13:34:33.492Z,101668.72
2023-02-19T13:37:01.297Z,101670.66
2023-02-19T13:39:29.243Z,101671.66
2023-02-19T13:41:59.261Z,101658.13
2023-02-19T13:44:28.568Z,101644.03
2023-02-19T13:46:55.296Z,101645.28
2023-02-19T13:49:48.801Z,101652.97
2023-02-19T13:52:40.504Z,101663.41
2023-02-19T13:55:44.123Z,101668.41
2023-02-19T13:58:50.247Z,101675.97
2023-02-19T14:01:18.375Z,101695.78
2023-02-19T14:03:48.243Z,101696.59
2023-02-19T14:06:14.852Z,101690.88
2023-02-19T14:08:49.760Z,101712.06
2023-02-19T14:11:17.658Z,101707.41
2023-02-19T14:14:24.416Z,101705.84
2023-02-19T14:16:56.869Z,101718.41
2023-02-19T14:19:58.479Z,101714.50
2023-02-19T14:22:47.519Z,101726.31
2023-02-19T14:25:26.980Z,101727.16
2023-02-19T14:27:57.001Z,101735.50
2023-02-19T14:30:24.101Z,101736.25
2023-02-19T14:33:02.739Z,101741.00
2023-02-19T14:35:40.285Z,101732.97
2023-02-19T14:38:14.212Z,101728.75
2023-02-19T14:40:42.060Z,101736.88
2023-02-19T14:43:14.138Z,101749.97
2023-02-19T14:45:43.750Z,101749.66
2023-02-19T14:48:21.169Z,101750.31
2023-02-19T14:50:50.794Z,101753.66
2023-02-19T14:53:20.280Z,101756.13
2023-02-19T14:55:47.865Z,101766.44
2023-02-19T14:58:19.721Z,101750.22
2023-02-19T15:00:46.454Z,101761.06
2023-02-19T15:03:29.759Z,101761.72
2023-02-19T15:06:00.665Z,101756.44
2023-02-19T15:08:32.410Z,101766.69
2023-02-19T15:10:59.435Z,101766.59
2023-02-19T15:13:29.191Z,101768.91
2023-02-19T15:15:57.044Z,101761.16
2023-02-19T15:18:25.268Z,101756.97
2023-02-19T15:20:59.923Z,101747.88
2023-02-19T15:23:27.676Z,101727.69
2023-02-19T15:25:54.357Z,101743.34
2023-02-19T15:28:30.324Z,101737.72
2023-02-19T15:31:14.025Z,101734.34
2023-02-19T15:33:49.183Z,101730.22
2023-02-19T15:36:24.675Z,101729.19
2023-02-19T15:38:56.715Z,101721.16
2023-02-19T15:41:26.396Z,101721.78
2023-02-19T15:43:59.127Z,101716.50
2023-02-19T15:46:26.108Z,101700.06
2023-02-19T15:48:59.478Z,101714.16
2023-02-19T15:51:34.709Z,101712.25
2023-02-19T15:54:07.338Z,101704.34
2023-02-19T15:56:37.896Z,101705.69
2023-02-19T15:59:12.041Z,101712.44
2023-02-19T16:01:39.831Z,101683.91
2023-02-19T16:04:12.179Z,101700.00
2023-02-19T16:06:53.205Z,101705.25
2023-02-19T16:09:21.698Z,101705.03
2023-02-19T16:11:51.071Z,101694.19
2023-02-19T16:14:29.044Z,101708.00
2023-02-19T16:16:58.367Z,101705.25
2023-02-19T16:19:28.643Z,101710.72
2023-02-19T16:21:58.126Z,101707.16
2023-02-19T16:24:30.992Z,101716.00
2023-02-19T16:26:58.824Z,101716.09
2023-02-19T16:29:27.896Z,101718.03
2023-02-19T16:31:57.094Z,101712.22
2023-02-19T16:34:32.629Z,101726.78
2023-02-19T16:37:01.781Z,101721.50
2023-02-19T16:39:28.472Z,101730.53
2023-02-19T16:42:15.987Z,101741.94
2023-02-19T16:44:43.519Z,101736.44
2023-02-19T16:47:30.847Z,101751.56
2023-02-19T16:50:00.016Z,101750.94
2023-02-19T16:52:28.835Z,101751.66
2023-02-19T16:54:55.447Z,101754.06
2023-02-19T16:57:22.072Z,101752.47
2023-02-19T16:59:48.680Z,101739.22
2023-02-19T17:02:22.135Z,101743.97
2023-02-19T17:04:49.234Z,101779.22
2023-02-19T17:07:17.494Z,101778.50
2023-02-19T17:09:45.691Z,101762.09
2023-02-19T17:12:13.383Z,101779.97
2023-02-19T17:14:40.424Z,101790.44
2023-02-19T17:17:07.190Z,101791.47
2023-02-19T17:19:33.879Z,101799.19
2023-02-19T17:22:00.493Z,101792.94
2023-02-19T17:24:27.198Z,101803.34
2023-02-19T17:26:55.070Z,101795.00
2023-02-19T17:29:21.761Z,101811.66
2023-02-19T17:31:48.405Z,101819.47
2023-02-19T17:34:15.086Z,101827.47
2023-02-19T17:36:41.692Z,101824.66
2023-02-19T17:39:13.893Z,101821.03
2023-02-19T17:41:40.961Z,101846.59
2023-02-19T17:44:08.989Z,101845.75
2023-02-19T17:46:35.852Z,101844.06
2023-02-19T17:49:02.432Z,101846.31
2023-02-19T17:51:29.101Z,101847.09
2023-02-19T17:53:55.701Z,101837.50
2023-02-19T17:56:24.420Z,101843.81
2023-02-19T17:58:51.791Z,101827.91
2023-02-19T18:01:20.314Z,101849.16
2023-02-19T18:03:47.276Z,101835.53
2023-02-19T18:06:14.275Z,101852.75
2023-02-19T18:08:46.980Z,101872.50
2023-02-19T18:11:13.870Z,101874.28
2023-02-19T18:13:40.493Z,101879.88
2023-02-19T18:16:07.377Z,101871.75
2023-02-19T18:18:35.624Z,101865.75
2023-02-19T18:21:02.294Z,101874.88
2023-02-19T18:23:29.032Z,101874.22
2023-02-19T18:25:55.631Z,101870.84
2023-02-19T18:28:22.320Z,101874.88
2023-02-19T18:30:49.139Z,101867.72
2023-02-19T18:33:15.717Z,101868.84
2023-02-19T18:35:43.669Z,101877.41
2023-02-19T18:38:10.193Z,101882.59
2023-02-19T18:40:36.766Z,101881.72
2023-02-19T18:43:04.402Z,101880.16
2023-02-19T18:45:31.135Z,101883.44
2023-02-19T18:47:57.638Z,101896.81
2023-02-19T18:50:24.188Z,101895.31
2023-02-19T18:52:52.084Z,101884.47
2023-02-19T18:55:18.769Z,101896.59
2023-02-19T18:57:46.145Z,101877.13
2023-02-19T19:00:19.145Z,101890.03
2023-02-19T19:02:49.818Z,101892.94
2023-02-19T19:05:19.351Z,101907.88
2023-02-19T19:07:45.842Z,101876.72
2023-02-19T19:10:13.778Z,101902.81
2023-02-19T19:12:40.279Z,101911.72
2023-02-19T19:15:07.514Z,101916.06
2023-02-19T19:17:34.017Z,101917.44
2023-02-19T19:20:00.591Z,101895.44
2023-02-19T19:22:27.388Z,101925.16
2023-02-19T19:24:53.948Z,101924.56
2023-02-19T19:27:21.857Z,101923.66
2023-02-19T19:29:48.682Z,101924.16
2023-02-19T19:32:15.793Z,101927.41
2023-02-19T19:34:42.569Z,101929.19
2023-02-19T19:37:09.605Z,101923.50
2023-02-19T19:39:36.298Z,101929.34
2023-02-19T19:42:02.986Z,101932.91
2023-02-19T19:44:30.903Z,101934.91
2023-02-19T19:46:57.556Z,101922.81
2023-02-19T19:49:24.682Z,101940.44
2023-02-19T19:51:51.773Z,101932.53
2023-02-19T19:54:19.489Z,101917.38
2023-02-19T19:56:47.378Z,101946.72
2023-02-19T19:59:16.944Z,101940.69
2023-02-19T20:01:50.144Z,101946.78
2023-02-19T20:04:17.413Z,101952.16
2023-02-19T20:06:44.115Z,101942.47
2023-02-19T20:09:11.198Z,101950.47
2023-02-19T20:11:44.060Z,101938.16
2023-02-19T20:14:10.733Z,101934.91
2023-02-19T20:16:37.449Z,101907.63
2023-02-19T20:19:05.675Z,101933.31
2023-02-19T20:21:32.263Z,101931.72
2023-02-19T20:23:59.355Z,101913.56
2023-02-19T20:26:28.212Z,101946.16
2023-02-19T20:28:55.573Z,101949.09
2023-02-19T20:31:22.934Z,101954.53
2023-02-19T20:33:50.480Z,101946.81
2023-02-19T20:36:19.006Z,101972.56
2023-02-19T20:38:46.119Z,101961.50
2023-02-19T20:41:13.093Z,101975.78
2023-02-19T20:43:39.801Z,101972.22
2023-02-19T20:46:06.396Z,101960.00
2023-02-19T20:48:33.226Z,101955.66
2023-02-19T20:50:59.765Z,101963.91
2023-02-19T20:53:28.810Z,101967.31
2023-02-19T20:55:55.830Z,101948.00
2023-02-19T20:58:23.045Z,101964.03
2023-02-19T21:00:49.671Z,101971.19
2023-02-19T21:03:16.270Z,101968.69
2023-02-19T21:05:42.800Z,101972.44
2023-02-19T21:08:09.342Z,101908.81
2023-02-19T21:10:37.363Z,101971.69
2023-02-19T21:13:04.202Z,101974.16
2023-02-19T21:15:30.711Z,101979.56
2023-02-19T21:17:57.419Z,101973.66
2023-02-19T21:20:23.940Z,101967.78
2023-02-19T21:22:50.539Z,101987.47
2023-02-19T21:25:17.210Z,101990.88
2023-02-19T21:27:45.393Z,101971.63
2023-02-19T21:30:12.345Z,101993.75
2023-02-19T21:32:38.919Z,102006.81
2023-02-19T21:35:05.932Z,102007.00
2023-02-19T21:37:32.548Z,102007.47
2023-02-19T21:39:59.079Z,102008.31
2023-02-19T21:42:27.907Z,102005.63
2023-02-19T21:44:55.969Z,102013.50
2023-02-19T21:47:22.500Z,101986.44
2023-02-19T21:49:49.025Z,102013.50
2023-02-19T21:52:15.695Z,102009.25
2023-02-19T21:54:42.201Z,102010.22
2023-02-19T21:57:08.904Z,102008.66
2023-02-19T21:59:35.432Z,102014.78
2023-02-19T22:02:03.450Z,102018.25
2023-02-19T22:04:30.107Z,102014.84
2023-02-19T22:06:56.836Z,102014.78
2023-02-19T22:09:23.360Z,102024.69
2023-02-19T22:11:50.035Z,101984.53
2023-02-19T22:14:16.549Z,102020.03
2023-02-19T22:16:43.168Z,102011.44
2023-02-19T22:19:12.369Z,102015.16
2023-02-19T22:21:42.901Z,102016.16
2023-02-19T22:24:14.885Z,102009.56
2023-02-19T22:26:41.480Z,101994.97
2023-02-19T22:29:10.147Z,102009.25
2023-02-19T22:31:37.067Z,102011.28
2023-02-19T22:34:04.128Z,102007.13
2023-02-19T22:36:33.734Z,102006.41
2023-02-19T22:39:01.327Z,102008.44
2023-02-19T22:41:28.511Z,102015.88
2023-02-19T22:43:55.847Z,101996.56
2023-02-19T22:46:24.142Z,102020.81
2023-02-19T22:48:51.110Z,102023.53
2023-02-19T22:51:19.467Z,101991.16
2023-02-19T22:53:49.811Z,101991.69
2023-02-19T22:56:18.185Z,102022.91
2023-02-19T22:58:44.999Z,102016.41
2023-02-19T23:01:13.128Z,102019.34
2023-02-19T23:03:45.658Z,102016.97
2023-02-19T23:06:12.546Z,102015.38
2023-02-19T23:08:39.324Z,102010.44
2023-02-19T23:11:07.538Z,102015.13
2023-02-19T23:13:34.028Z,102007.56
2023-02-19T23:16:01.060Z,102002.59
2023-02-19T23:18:27.597Z,101997.66
2023-02-19T23:20:54.165Z,101969.91
2023-02-19T23:23:20.725Z,101992.22
2023-02-19T23:25:47.340Z,101993.28
2023-02-19T23:28:15.407Z,101995.34
2023-02-19T23:30:42.484Z,101995.56
2023-02-19T23:33:09.074Z,101998.59
2023-02-19T23:35:35.825Z,102004.28
2023-02-19T23:38:02.671Z,102010.75
2023-02-19T23:40:29.633Z,101982.84
2023-02-19T23:42:56.134Z,101991.25
2023-02-19T23:45:24.309Z,102003.81
2023-02-19T23:47:51.069Z,102008.38
2023-02-19T23:50:18.550Z,102000.72
2023-02-19T23:52:45.142Z,102000.19
2023-02-19T23:55:11.788Z,101996.22
2023-02-19T23:57:38.312Z,101999.31
